sensor_id;sensor_type;location;lat;lon;timestamp;P1;durP1;ratioP1;P2;durP2;ratioP2
52790;SDS011;41253;46.856;-71.574;2022-08-01T00:01:24;3.05;;;2.85;;
52790;SDS011;41253;46.856;-71.574;2022-08-01T00:03:50;4.22;;;2.90;;
52790;SDS011;41253;46.856;-71.574;2022-08-01T00:06:17;3.78;;;3.03;;
52790;SDS011;41253;46.856;-71.574;2022-08-01T00:08:44;5.65;;;3.60;;
52790;SDS011;41253;46.856;-71.574;2022-08-01T00:11:10;5.05;;;3.00;;
52790;SDS011;41253;46.856;-71.574;2022-08-01T00:13:37;2.83;;;2.58;;
52790;SDS011;41253;46.856;-71.574;2022-08-01T00:16:03;2.92;;;2.60;;
52790;SDS011;41253;46.856;-71.574;2022-08-01T00:18:30;3.42;;;3.13;;
52790;SDS011;41253;46.856;-71.574;2022-08-01T00:20:57;3.35;;;3.05;;
52790;SDS011;41253;46.856;-71.574;2022-08-01T00:23:23;3.00;;;2.70;;
52790;SDS011;41253;46.856;-71.574;2022-08-01T00:25:49;3.88;;;2.65;;
52790;SDS011;41253;46.856;-71.574;2022-08-01T00:28:16;3.25;;;2.95;;
52790;SDS011;41253;46.856;-71.574;2022-08-01T00:30:42;3.30;;;3.00;;
52790;SDS011;41253;46.856;-71.574;2022-08-01T00:33:09;3.70;;;3.20;;
52790;SDS011;41253;46.856;-71.574;2022-08-01T00:35:35;3.28;;;2.97;;
52790;SDS011;41253;46.856;-71.574;2022-08-01T00:38:02;4.25;;;3.42;;
52790;SDS011;41253;46.856;-71.574;2022-08-01T00:40:28;3.58;;;3.15;;
52790;SDS011;41253;46.856;-71.574;2022-08-01T00:42:54;3.53;;;3.00;;
52790;SDS011;41253;46.856;-71.574;2022-08-01T00:45:21;3.10;;;2.80;;
52790;SDS011;41253;46.856;-71.574;2022-08-01T00:47:48;3.08;;;2.78;;
52790;SDS011;41253;46.856;-71.574;2022-08-01T00:50:14;6.20;;;3.20;;
52790;SDS011;41253;46.856;-71.574;2022-08-01T00:52:41;3.38;;;3.08;;
52790;SDS011;41253;46.856;-71.574;2022-08-01T00:55:09;3.35;;;2.83;;
52790;SDS011;41253;46.856;-71.574;2022-08-01T00:57:38;3.42;;;3.10;;
52790;SDS011;41253;46.856;-71.574;2022-08-01T01:00:05;4.85;;;2.92;;
52790;SDS011;41253;46.856;-71.574;2022-08-01T01:02:35;4.00;;;2.92;;
52790;SDS011;41253;46.856;-71.574;2022-08-01T01:05:01;3.40;;;3.10;;
52790;SDS011;41253;46.856;-71.574;2022-08-01T01:08:03;4.43;;;3.30;;
52790;SDS011;41253;46.856;-71.574;2022-08-01T01:10:42;6.28;;;3.55;;
52790;SDS011;41253;46.856;-71.574;2022-08-01T01:15:58;5.65;;;4.35;;
52790;SDS011;41253;46.856;-71.574;2022-08-01T01:18:32;8.40;;;5.90;;
52790;SDS011;41253;46.856;-71.574;2022-08-01T01:21:13;7.32;;;5.85;;
52790;SDS011;41253;46.856;-71.574;2022-08-01T01:31:55;4.20;;;3.83;;
52790;SDS011;41253;46.856;-71.574;2022-08-01T01:34:40;5.40;;;3.65;;
52790;SDS011;41253;46.856;-71.574;2022-08-01T01:37:11;4.90;;;3.97;;
52790;SDS011;41253;46.856;-71.574;2022-08-01T01:39:41;4.95;;;4.45;;
52790;SDS011;41253;46.856;-71.574;2022-08-01T01:42:10;8.18;;;4.57;;
52790;SDS011;41253;46.856;-71.574;2022-08-01T01:44:37;5.20;;;4.03;;
52790;SDS011;41253;46.856;-71.574;2022-08-01T01:47:04;5.45;;;4.40;;
52790;SDS011;41253;46.856;-71.574;2022-08-01T01:49:31;4.28;;;3.60;;
52790;SDS011;41253;46.856;-71.574;2022-08-01T01:52:00;5.05;;;4.00;;
52790;SDS011;41253;46.856;-71.574;2022-08-01T01:54:36;4.63;;;3.67;;
52790;SDS011;41253;46.856;-71.574;2022-08-01T01:57:06;5.05;;;3.78;;
52790;SDS011;41253;46.856;-71.574;2022-08-01T01:59:36;5.40;;;3.75;;
52790;SDS011;41253;46.856;-71.574;2022-08-01T02:02:04;3.60;;;3.30;;
52790;SDS011;41253;46.856;-71.574;2022-08-01T02:04:35;5.63;;;4.55;;
52790;SDS011;41253;46.856;-71.574;2022-08-01T02:07:03;4.13;;;3.72;;
52790;SDS011;41253;46.856;-71.574;2022-08-01T02:09:32;4.53;;;4.13;;
52790;SDS011;41253;46.856;-71.574;2022-08-01T02:12:01;5.32;;;3.88;;
52790;SDS011;41253;46.856;-71.574;2022-08-01T02:14:28;4.32;;;3.92;;
52790;SDS011;41253;46.856;-71.574;2022-08-01T02:16:56;4.40;;;3.67;;
52790;SDS011;41253;46.856;-71.574;2022-08-01T02:19:24;4.68;;;3.85;;
52790;SDS011;41253;46.856;-71.574;2022-08-01T02:22:08;5.40;;;4.18;;
52790;SDS011;41253;46.856;-71.574;2022-08-01T02:24:55;5.60;;;4.18;;
52790;SDS011;41253;46.856;-71.574;2022-08-01T02:27:29;4.53;;;4.07;;
52790;SDS011;41253;46.856;-71.574;2022-08-01T02:30:05;5.80;;;4.15;;
52790;SDS011;41253;46.856;-71.574;2022-08-01T02:35:23;6.25;;;4.50;;
52790;SDS011;41253;46.856;-71.574;2022-08-01T02:37:55;4.55;;;4.15;;
52790;SDS011;41253;46.856;-71.574;2022-08-01T02:40:24;7.97;;;4.80;;
52790;SDS011;41253;46.856;-71.574;2022-08-01T02:42:54;6.22;;;5.05;;
52790;SDS011;41253;46.856;-71.574;2022-08-01T02:45:24;5.60;;;5.10;;
52790;SDS011;41253;46.856;-71.574;2022-08-01T02:47:53;5.45;;;4.93;;
52790;SDS011;41253;46.856;-71.574;2022-08-01T02:50:24;4.88;;;4.40;;
52790;SDS011;41253;46.856;-71.574;2022-08-01T02:52:53;5.45;;;4.70;;
52790;SDS011;41253;46.856;-71.574;2022-08-01T02:55:22;7.57;;;4.53;;
52790;SDS011;41253;46.856;-71.574;2022-08-01T02:57:49;5.22;;;4.60;;
52790;SDS011;41253;46.856;-71.574;2022-08-01T03:00:18;4.18;;;3.78;;
52790;SDS011;41253;46.856;-71.574;2022-08-01T03:02:45;4.97;;;4.50;;
52790;SDS011;41253;46.856;-71.574;2022-08-01T03:05:13;5.07;;;4.50;;
52790;SDS011;41253;46.856;-71.574;2022-08-01T03:07:42;8.02;;;4.88;;
52790;SDS011;41253;46.856;-71.574;2022-08-01T03:10:09;8.30;;;4.82;;
52790;SDS011;41253;46.856;-71.574;2022-08-01T03:12:36;7.55;;;4.80;;
52790;SDS011;41253;46.856;-71.574;2022-08-01T03:15:05;6.97;;;5.28;;
52790;SDS011;41253;46.856;-71.574;2022-08-01T03:17:33;6.32;;;5.40;;
52790;SDS011;41253;46.856;-71.574;2022-08-01T03:20:02;5.10;;;4.60;;
52790;SDS011;41253;46.856;-71.574;2022-08-01T03:22:30;8.48;;;5.05;;
52790;SDS011;41253;46.856;-71.574;2022-08-01T03:24:59;5.47;;;4.97;;
52790;SDS011;41253;46.856;-71.574;2022-08-01T03:27:27;5.43;;;4.90;;
52790;SDS011;41253;46.856;-71.574;2022-08-01T03:29:55;6.35;;;5.28;;
52790;SDS011;41253;46.856;-71.574;2022-08-01T03:32:23;5.45;;;4.95;;
52790;SDS011;41253;46.856;-71.574;2022-08-01T03:34:52;7.13;;;5.40;;
52790;SDS011;41253;46.856;-71.574;2022-08-01T03:37:38;7.93;;;5.20;;
52790;SDS011;41253;46.856;-71.574;2022-08-01T03:40:23;7.68;;;5.28;;
52790;SDS011;41253;46.856;-71.574;2022-08-01T03:43:11;5.97;;;4.88;;
52790;SDS011;41253;46.856;-71.574;2022-08-01T03:45:46;7.25;;;5.50;;
52790;SDS011;41253;46.856;-71.574;2022-08-01T03:48:17;7.70;;;5.28;;
52790;SDS011;41253;46.856;-71.574;2022-08-01T03:50:50;8.15;;;5.63;;
52790;SDS011;41253;46.856;-71.574;2022-08-01T03:53:22;6.88;;;5.03;;
52790;SDS011;41253;46.856;-71.574;2022-08-01T03:55:51;10.05;;;5.60;;
52790;SDS011;41253;46.856;-71.574;2022-08-01T03:58:19;6.90;;;6.22;;
52790;SDS011;41253;46.856;-71.574;2022-08-01T04:00:47;5.68;;;5.07;;
52790;SDS011;41253;46.856;-71.574;2022-08-01T04:03:14;9.35;;;5.18;;
52790;SDS011;41253;46.856;-71.574;2022-08-01T04:05:41;8.00;;;5.70;;
52790;SDS011;41253;46.856;-71.574;2022-08-01T04:08:08;6.60;;;5.60;;
52790;SDS011;41253;46.856;-71.574;2022-08-01T04:10:35;6.55;;;5.60;;
52790;SDS011;41253;46.856;-71.574;2022-08-01T04:13:02;7.03;;;5.38;;
52790;SDS011;41253;46.856;-71.574;2022-08-01T04:15:29;5.60;;;5.10;;
52790;SDS011;41253;46.856;-71.574;2022-08-01T04:17:56;8.15;;;4.72;;
52790;SDS011;41253;46.856;-71.574;2022-08-01T04:20:22;6.70;;;5.50;;
52790;SDS011;41253;46.856;-71.574;2022-08-01T04:22:48;9.00;;;5.45;;
52790;SDS011;41253;46.856;-71.574;2022-08-01T04:25:17;6.13;;;5.53;;
52790;SDS011;41253;46.856;-71.574;2022-08-01T04:27:54;5.80;;;5.10;;
52790;SDS011;41253;46.856;-71.574;2022-08-01T04:30:23;7.68;;;5.20;;
52790;SDS011;41253;46.856;-71.574;2022-08-01T04:32:55;6.95;;;5.50;;
52790;SDS011;41253;46.856;-71.574;2022-08-01T04:35:25;5.60;;;5.03;;
52790;SDS011;41253;46.856;-71.574;2022-08-01T04:37:53;8.27;;;6.68;;
52790;SDS011;41253;46.856;-71.574;2022-08-01T04:40:20;7.57;;;6.13;;
52790;SDS011;41253;46.856;-71.574;2022-08-01T04:42:48;7.97;;;6.03;;
52790;SDS011;41253;46.856;-71.574;2022-08-01T04:45:15;7.35;;;5.50;;
52790;SDS011;41253;46.856;-71.574;2022-08-01T04:47:42;5.80;;;5.30;;
52790;SDS011;41253;46.856;-71.574;2022-08-01T04:50:09;9.70;;;6.30;;
52790;SDS011;41253;46.856;-71.574;2022-08-01T04:52:37;8.40;;;6.30;;
52790;SDS011;41253;46.856;-71.574;2022-08-01T04:55:04;7.28;;;5.20;;
52790;SDS011;41253;46.856;-71.574;2022-08-01T04:57:36;8.95;;;4.97;;
52790;SDS011;41253;46.856;-71.574;2022-08-01T05:00:05;7.22;;;5.43;;
52790;SDS011;41253;46.856;-71.574;2022-08-01T05:02:32;8.43;;;5.63;;
52790;SDS011;41253;46.856;-71.574;2022-08-01T05:04:59;7.43;;;5.93;;
52790;SDS011;41253;46.856;-71.574;2022-08-01T05:07:25;11.27;;;5.85;;
52790;SDS011;41253;46.856;-71.574;2022-08-01T05:09:52;8.52;;;5.20;;
52790;SDS011;41253;46.856;-71.574;2022-08-01T05:12:18;8.77;;;5.63;;
52790;SDS011;41253;46.856;-71.574;2022-08-01T05:14:46;6.05;;;5.28;;
52790;SDS011;41253;46.856;-71.574;2022-08-01T05:17:12;6.78;;;5.82;;
52790;SDS011;41253;46.856;-71.574;2022-08-01T05:19:39;7.57;;;5.82;;
52790;SDS011;41253;46.856;-71.574;2022-08-01T05:22:06;9.10;;;5.20;;
52790;SDS011;41253;46.856;-71.574;2022-08-01T05:24:34;7.45;;;4.72;;
52790;SDS011;41253;46.856;-71.574;2022-08-01T05:27:02;7.00;;;5.97;;
52790;SDS011;41253;46.856;-71.574;2022-08-01T05:29:29;5.82;;;5.18;;
52790;SDS011;41253;46.856;-71.574;2022-08-01T05:31:56;7.32;;;5.55;;
52790;SDS011;41253;46.856;-71.574;2022-08-01T05:34:24;6.80;;;5.40;;
52790;SDS011;41253;46.856;-71.574;2022-08-01T05:36:51;6.43;;;5.60;;
52790;SDS011;41253;46.856;-71.574;2022-08-01T05:39:18;9.10;;;5.60;;
52790;SDS011;41253;46.856;-71.574;2022-08-01T05:41:45;11.60;;;5.38;;
52790;SDS011;41253;46.856;-71.574;2022-08-01T05:44:11;8.32;;;5.68;;
52790;SDS011;41253;46.856;-71.574;2022-08-01T05:46:37;6.03;;;5.13;;
52790;SDS011;41253;46.856;-71.574;2022-08-01T05:49:04;5.57;;;4.90;;
52790;SDS011;41253;46.856;-71.574;2022-08-01T05:51:31;6.57;;;5.47;;
52790;SDS011;41253;46.856;-71.574;2022-08-01T05:53:58;6.88;;;5.57;;
52790;SDS011;41253;46.856;-71.574;2022-08-01T05:56:26;6.57;;;5.28;;
52790;SDS011;41253;46.856;-71.574;2022-08-01T05:58:52;5.55;;;4.93;;
52790;SDS011;41253;46.856;-71.574;2022-08-01T06:01:18;6.07;;;4.88;;
52790;SDS011;41253;46.856;-71.574;2022-08-01T06:03:45;5.75;;;5.15;;
52790;SDS011;41253;46.856;-71.574;2022-08-01T06:06:12;5.30;;;4.80;;
52790;SDS011;41253;46.856;-71.574;2022-08-01T06:08:39;5.60;;;5.07;;
52790;SDS011;41253;46.856;-71.574;2022-08-01T06:11:06;5.20;;;4.72;;
52790;SDS011;41253;46.856;-71.574;2022-08-01T06:13:33;8.45;;;5.40;;
52790;SDS011;41253;46.856;-71.574;2022-08-01T06:15:59;6.30;;;4.90;;
52790;SDS011;41253;46.856;-71.574;2022-08-01T06:18:26;5.63;;;4.75;;
52790;SDS011;41253;46.856;-71.574;2022-08-01T06:20:52;6.07;;;4.82;;
52790;SDS011;41253;46.856;-71.574;2022-08-01T06:23:19;6.22;;;4.43;;
52790;SDS011;41253;46.856;-71.574;2022-08-01T06:25:47;7.32;;;4.70;;
52790;SDS011;41253;46.856;-71.574;2022-08-01T06:28:14;6.78;;;5.90;;
52790;SDS011;41253;46.856;-71.574;2022-08-01T06:30:40;7.00;;;5.20;;
52790;SDS011;41253;46.856;-71.574;2022-08-01T06:33:07;4.95;;;4.53;;
52790;SDS011;41253;46.856;-71.574;2022-08-01T06:35:34;9.02;;;5.25;;
52790;SDS011;41253;46.856;-71.574;2022-08-01T06:38:01;5.97;;;4.88;;
52790;SDS011;41253;46.856;-71.574;2022-08-01T06:40:28;7.30;;;4.80;;
52790;SDS011;41253;46.856;-71.574;2022-08-01T06:42:54;6.57;;;5.28;;
52790;SDS011;41253;46.856;-71.574;2022-08-01T06:45:21;6.07;;;4.63;;
52790;SDS011;41253;46.856;-71.574;2022-08-01T06:47:52;6.35;;;4.60;;
52790;SDS011;41253;46.856;-71.574;2022-08-01T06:50:18;6.28;;;4.78;;
52790;SDS011;41253;46.856;-71.574;2022-08-01T06:52:45;5.93;;;5.13;;
52790;SDS011;41253;46.856;-71.574;2022-08-01T06:55:11;5.25;;;4.75;;
52790;SDS011;41253;46.856;-71.574;2022-08-01T06:57:45;6.72;;;4.97;;
52790;SDS011;41253;46.856;-71.574;2022-08-01T07:00:12;5.70;;;4.30;;
52790;SDS011;41253;46.856;-71.574;2022-08-01T07:02:41;6.13;;;4.50;;
52790;SDS011;41253;46.856;-71.574;2022-08-01T07:05:08;6.93;;;4.88;;
52790;SDS011;41253;46.856;-71.574;2022-08-01T07:07:36;7.63;;;5.40;;
52790;SDS011;41253;46.856;-71.574;2022-08-01T07:10:02;6.03;;;5.43;;
52790;SDS011;41253;46.856;-71.574;2022-08-01T07:12:29;6.97;;;4.95;;
52790;SDS011;41253;46.856;-71.574;2022-08-01T07:14:56;6.30;;;5.30;;
52790;SDS011;41253;46.856;-71.574;2022-08-01T07:17:22;7.90;;;5.07;;
52790;SDS011;41253;46.856;-71.574;2022-08-01T07:19:49;6.00;;;5.10;;
52790;SDS011;41253;46.856;-71.574;2022-08-01T07:22:15;5.93;;;5.05;;
52790;SDS011;41253;46.856;-71.574;2022-08-01T07:24:42;7.28;;;5.00;;
52790;SDS011;41253;46.856;-71.574;2022-08-01T07:27:08;6.53;;;4.70;;
52790;SDS011;41253;46.856;-71.574;2022-08-01T07:29:35;7.10;;;5.32;;
52790;SDS011;41253;46.856;-71.574;2022-08-01T07:32:01;6.72;;;5.15;;
52790;SDS011;41253;46.856;-71.574;2022-08-01T07:34:28;6.90;;;5.38;;
52790;SDS011;41253;46.856;-71.574;2022-08-01T07:36:54;8.50;;;5.75;;
52790;SDS011;41253;46.856;-71.574;2022-08-01T07:39:20;6.93;;;4.32;;
52790;SDS011;41253;46.856;-71.574;2022-08-01T07:41:47;9.63;;;6.20;;
52790;SDS011;41253;46.856;-71.574;2022-08-01T07:44:14;8.43;;;5.63;;
52790;SDS011;41253;46.856;-71.574;2022-08-01T07:46:40;8.07;;;6.18;;
52790;SDS011;41253;46.856;-71.574;2022-08-01T07:49:07;8.25;;;5.82;;
52790;SDS011;41253;46.856;-71.574;2022-08-01T07:51:33;6.85;;;6.15;;
52790;SDS011;41253;46.856;-71.574;2022-08-01T07:54:00;6.03;;;5.40;;
52790;SDS011;41253;46.856;-71.574;2022-08-01T07:56:26;7.22;;;5.45;;
52790;SDS011;41253;46.856;-71.574;2022-08-01T07:58:53;8.88;;;5.57;;
52790;SDS011;41253;46.856;-71.574;2022-08-01T08:01:19;6.07;;;5.07;;
52790;SDS011;41253;46.856;-71.574;2022-08-01T08:03:46;6.35;;;5.15;;
52790;SDS011;41253;46.856;-71.574;2022-08-01T08:06:12;5.72;;;4.78;;
52790;SDS011;41253;46.856;-71.574;2022-08-01T08:08:39;7.15;;;5.78;;
52790;SDS011;41253;46.856;-71.574;2022-08-01T08:11:05;6.30;;;5.57;;
52790;SDS011;41253;46.856;-71.574;2022-08-01T08:13:32;7.80;;;5.82;;
52790;SDS011;41253;46.856;-71.574;2022-08-01T08:15:58;9.55;;;6.43;;
52790;SDS011;41253;46.856;-71.574;2022-08-01T08:18:25;7.65;;;5.65;;
52790;SDS011;41253;46.856;-71.574;2022-08-01T08:20:51;6.85;;;5.15;;
52790;SDS011;41253;46.856;-71.574;2022-08-01T08:23:18;6.65;;;5.95;;
52790;SDS011;41253;46.856;-71.574;2022-08-01T08:26:03;8.68;;;6.00;;
52790;SDS011;41253;46.856;-71.574;2022-08-01T08:28:29;6.32;;;5.50;;
52790;SDS011;41253;46.856;-71.574;2022-08-01T08:30:55;11.70;;;6.80;;
52790;SDS011;41253;46.856;-71.574;2022-08-01T08:33:22;6.78;;;5.78;;
52790;SDS011;41253;46.856;-71.574;2022-08-01T08:35:48;6.97;;;5.25;;
52790;SDS011;41253;46.856;-71.574;2022-08-01T08:38:15;9.70;;;5.80;;
52790;SDS011;41253;46.856;-71.574;2022-08-01T08:40:41;7.47;;;5.45;;
52790;SDS011;41253;46.856;-71.574;2022-08-01T08:43:08;6.32;;;5.22;;
52790;SDS011;41253;46.856;-71.574;2022-08-01T08:45:35;10.18;;;5.75;;
52790;SDS011;41253;46.856;-71.574;2022-08-01T08:48:02;6.05;;;5.18;;
52790;SDS011;41253;46.856;-71.574;2022-08-01T08:50:31;7.65;;;6.13;;
52790;SDS011;41253;46.856;-71.574;2022-08-01T08:52:58;7.57;;;5.70;;
52790;SDS011;41253;46.856;-71.574;2022-08-01T08:55:26;8.88;;;6.05;;
52790;SDS011;41253;46.856;-71.574;2022-08-01T08:57:53;8.20;;;5.70;;
52790;SDS011;41253;46.856;-71.574;2022-08-01T09:00:21;6.88;;;5.20;;
52790;SDS011;41253;46.856;-71.574;2022-08-01T09:02:47;6.20;;;5.13;;
52790;SDS011;41253;46.856;-71.574;2022-08-01T09:05:22;8.02;;;4.32;;
52790;SDS011;41253;46.856;-71.574;2022-08-01T09:07:52;5.75;;;4.57;;
52790;SDS011;41253;46.856;-71.574;2022-08-01T09:10:19;9.52;;;5.50;;
52790;SDS011;41253;46.856;-71.574;2022-08-01T09:15:49;7.10;;;6.15;;
52790;SDS011;41253;46.856;-71.574;2022-08-01T09:18:29;7.97;;;5.57;;
52790;SDS011;41253;46.856;-71.574;2022-08-01T09:23:49;6.00;;;4.93;;
52790;SDS011;41253;46.856;-71.574;2022-08-01T09:26:17;6.55;;;5.00;;
52790;SDS011;41253;46.856;-71.574;2022-08-01T09:28:46;7.65;;;5.65;;
52790;SDS011;41253;46.856;-71.574;2022-08-01T09:31:17;8.82;;;5.45;;
52790;SDS011;41253;46.856;-71.574;2022-08-01T09:33:57;8.30;;;5.03;;
52790;SDS011;41253;46.856;-71.574;2022-08-01T09:39:13;4.93;;;4.43;;
52790;SDS011;41253;46.856;-71.574;2022-08-01T09:41:40;7.25;;;5.38;;
52790;SDS011;41253;46.856;-71.574;2022-08-01T09:44:07;7.82;;;4.40;;
52790;SDS011;41253;46.856;-71.574;2022-08-01T09:46:34;6.68;;;4.70;;
52790;SDS011;41253;46.856;-71.574;2022-08-01T09:49:05;8.95;;;4.55;;
52790;SDS011;41253;46.856;-71.574;2022-08-01T09:51:35;8.25;;;4.60;;
52790;SDS011;41253;46.856;-71.574;2022-08-01T09:54:05;5.65;;;4.13;;
52790;SDS011;41253;46.856;-71.574;2022-08-01T09:56:40;10.73;;;5.30;;
52790;SDS011;41253;46.856;-71.574;2022-08-01T09:59:08;7.72;;;5.75;;
52790;SDS011;41253;46.856;-71.574;2022-08-01T10:01:44;9.50;;;5.78;;
52790;SDS011;41253;46.856;-71.574;2022-08-01T10:04:14;6.40;;;5.70;;
52790;SDS011;41253;46.856;-71.574;2022-08-01T10:06:43;7.22;;;5.38;;
52790;SDS011;41253;46.856;-71.574;2022-08-01T10:09:31;5.80;;;5.05;;
52790;SDS011;41253;46.856;-71.574;2022-08-01T10:12:02;9.10;;;5.50;;
52790;SDS011;41253;46.856;-71.574;2022-08-01T10:14:30;8.10;;;4.85;;
52790;SDS011;41253;46.856;-71.574;2022-08-01T10:16:57;7.95;;;5.05;;
52790;SDS011;41253;46.856;-71.574;2022-08-01T10:19:26;5.38;;;4.28;;
52790;SDS011;41253;46.856;-71.574;2022-08-01T10:21:54;6.57;;;4.25;;
52790;SDS011;41253;46.856;-71.574;2022-08-01T10:24:22;8.80;;;5.60;;
52790;SDS011;41253;46.856;-71.574;2022-08-01T10:26:54;6.82;;;5.07;;
52790;SDS011;41253;46.856;-71.574;2022-08-01T10:29:28;6.15;;;5.00;;
52790;SDS011;41253;46.856;-71.574;2022-08-01T10:32:05;8.02;;;5.13;;
52790;SDS011;41253;46.856;-71.574;2022-08-01T10:34:35;7.90;;;4.90;;
52790;SDS011;41253;46.856;-71.574;2022-08-01T10:37:03;4.55;;;4.15;;
52790;SDS011;41253;46.856;-71.574;2022-08-01T10:39:31;7.30;;;5.65;;
52790;SDS011;41253;46.856;-71.574;2022-08-01T10:41:59;5.57;;;4.78;;
52790;SDS011;41253;46.856;-71.574;2022-08-01T10:44:27;6.30;;;5.00;;
52790;SDS011;41253;46.856;-71.574;2022-08-01T10:46:57;5.68;;;4.70;;
52790;SDS011;41253;46.856;-71.574;2022-08-01T10:50:03;9.43;;;5.85;;
52790;SDS011;41253;46.856;-71.574;2022-08-01T10:52:39;6.30;;;5.25;;
52790;SDS011;41253;46.856;-71.574;2022-08-01T10:55:06;5.05;;;4.47;;
52790;SDS011;41253;46.856;-71.574;2022-08-01T11:00:20;6.97;;;4.93;;
52790;SDS011;41253;46.856;-71.574;2022-08-01T11:02:57;6.00;;;5.38;;
52790;SDS011;41253;46.856;-71.574;2022-08-01T11:05:27;5.75;;;5.07;;
52790;SDS011;41253;46.856;-71.574;2022-08-01T11:07:57;8.90;;;5.40;;
52790;SDS011;41253;46.856;-71.574;2022-08-01T11:10:30;6.78;;;5.20;;
52790;SDS011;41253;46.856;-71.574;2022-08-01T11:13:05;5.97;;;4.63;;
52790;SDS011;41253;46.856;-71.574;2022-08-01T11:15:37;6.75;;;5.40;;
52790;SDS011;41253;46.856;-71.574;2022-08-01T11:21:10;7.50;;;4.50;;
52790;SDS011;41253;46.856;-71.574;2022-08-01T11:23:46;4.85;;;4.32;;
52790;SDS011;41253;46.856;-71.574;2022-08-01T11:26:14;5.97;;;5.35;;
52790;SDS011;41253;46.856;-71.574;2022-08-01T11:28:42;7.18;;;4.95;;
52790;SDS011;41253;46.856;-71.574;2022-08-01T11:38:42;5.10;;;4.60;;
52790;SDS011;41253;46.856;-71.574;2022-08-01T11:41:20;4.88;;;4.13;;
52790;SDS011;41253;46.856;-71.574;2022-08-01T11:43:54;4.75;;;4.28;;
52790;SDS011;41253;46.856;-71.574;2022-08-01T11:52:11;4.28;;;3.72;;
52790;SDS011;41253;46.856;-71.574;2022-08-01T11:57:29;6.28;;;4.05;;
52790;SDS011;41253;46.856;-71.574;2022-08-01T12:00:01;5.82;;;4.35;;
52790;SDS011;41253;46.856;-71.574;2022-08-01T12:02:39;7.18;;;4.63;;
52790;SDS011;41253;46.856;-71.574;2022-08-01T12:05:07;5.00;;;4.60;;
52790;SDS011;41253;46.856;-71.574;2022-08-01T12:07:38;5.20;;;4.72;;
52790;SDS011;41253;46.856;-71.574;2022-08-01T12:10:07;6.13;;;4.47;;
52790;SDS011;41253;46.856;-71.574;2022-08-01T12:12:36;4.60;;;4.00;;
52790;SDS011;41253;46.856;-71.574;2022-08-01T12:15:07;5.45;;;4.55;;
52790;SDS011;41253;46.856;-71.574;2022-08-01T12:17:36;5.97;;;4.50;;
52790;SDS011;41253;46.856;-71.574;2022-08-01T12:20:06;5.22;;;4.35;;
52790;SDS011;41253;46.856;-71.574;2022-08-01T12:22:37;5.00;;;4.57;;
52790;SDS011;41253;46.856;-71.574;2022-08-01T12:25:08;4.80;;;4.28;;
52790;SDS011;41253;46.856;-71.574;2022-08-01T12:27:40;5.40;;;4.88;;
52790;SDS011;41253;46.856;-71.574;2022-08-01T12:30:26;6.53;;;5.47;;
52790;SDS011;41253;46.856;-71.574;2022-08-01T12:32:52;4.88;;;4.35;;
52790;SDS011;41253;46.856;-71.574;2022-08-01T12:35:21;6.07;;;4.50;;
52790;SDS011;41253;46.856;-71.574;2022-08-01T12:37:51;5.28;;;4.78;;
52790;SDS011;41253;46.856;-71.574;2022-08-01T12:40:22;5.55;;;4.50;;
52790;SDS011;41253;46.856;-71.574;2022-08-01T12:42:52;7.10;;;5.30;;
52790;SDS011;41253;46.856;-71.574;2022-08-01T12:45:39;7.30;;;4.70;;
52790;SDS011;41253;46.856;-71.574;2022-08-01T12:48:11;6.13;;;4.40;;
52790;SDS011;41253;46.856;-71.574;2022-08-01T12:50:49;5.80;;;4.65;;
52790;SDS011;41253;46.856;-71.574;2022-08-01T12:53:22;5.82;;;5.13;;
52790;SDS011;41253;46.856;-71.574;2022-08-01T12:55:49;6.93;;;5.10;;
52790;SDS011;41253;46.856;-71.574;2022-08-01T12:58:19;5.07;;;4.57;;
52790;SDS011;41253;46.856;-71.574;2022-08-01T13:00:48;5.20;;;4.70;;
52790;SDS011;41253;46.856;-71.574;2022-08-01T13:03:16;6.13;;;5.00;;
52790;SDS011;41253;46.856;-71.574;2022-08-01T13:08:11;5.35;;;4.45;;
52790;SDS011;41253;46.856;-71.574;2022-08-01T13:10:39;4.63;;;4.22;;
52790;SDS011;41253;46.856;-71.574;2022-08-01T13:13:06;7.97;;;5.40;;
52790;SDS011;41253;46.856;-71.574;2022-08-01T13:15:34;5.68;;;5.18;;
52790;SDS011;41253;46.856;-71.574;2022-08-01T13:23:39;5.82;;;4.18;;
52790;SDS011;41253;46.856;-71.574;2022-08-01T13:26:07;6.30;;;4.20;;
52790;SDS011;41253;46.856;-71.574;2022-08-01T13:28:34;5.88;;;4.90;;
52790;SDS011;41253;46.856;-71.574;2022-08-01T13:31:04;6.00;;;4.00;;
52790;SDS011;41253;46.856;-71.574;2022-08-01T13:33:45;6.05;;;4.90;;
52790;SDS011;41253;46.856;-71.574;2022-08-01T13:36:13;5.93;;;4.57;;
52790;SDS011;41253;46.856;-71.574;2022-08-01T13:38:41;5.80;;;4.80;;
52790;SDS011;41253;46.856;-71.574;2022-08-01T13:41:26;5.15;;;4.57;;
52790;SDS011;41253;46.856;-71.574;2022-08-01T13:43:53;5.85;;;4.72;;
52790;SDS011;41253;46.856;-71.574;2022-08-01T13:46:20;6.10;;;5.40;;
52790;SDS011;41253;46.856;-71.574;2022-08-01T13:48:46;9.13;;;5.93;;
52790;SDS011;41253;46.856;-71.574;2022-08-01T13:51:13;7.40;;;6.07;;
52790;SDS011;41253;46.856;-71.574;2022-08-01T13:53:40;7.80;;;5.57;;
52790;SDS011;41253;46.856;-71.574;2022-08-01T13:56:06;6.60;;;5.88;;
52790;SDS011;41253;46.856;-71.574;2022-08-01T13:58:32;7.90;;;6.00;;
52790;SDS011;41253;46.856;-71.574;2022-08-01T14:00:59;5.00;;;4.50;;
52790;SDS011;41253;46.856;-71.574;2022-08-01T14:03:25;7.40;;;5.60;;
52790;SDS011;41253;46.856;-71.574;2022-08-01T14:05:52;6.75;;;6.05;;
52790;SDS011;41253;46.856;-71.574;2022-08-01T14:08:19;7.45;;;6.20;;
52790;SDS011;41253;46.856;-71.574;2022-08-01T14:10:45;7.90;;;5.75;;
52790;SDS011;41253;46.856;-71.574;2022-08-01T14:13:11;5.28;;;4.78;;
52790;SDS011;41253;46.856;-71.574;2022-08-01T14:15:39;6.15;;;5.30;;
52790;SDS011;41253;46.856;-71.574;2022-08-01T14:18:06;5.30;;;4.80;;
52790;SDS011;41253;46.856;-71.574;2022-08-01T14:20:34;6.22;;;5.60;;
52790;SDS011;41253;46.856;-71.574;2022-08-01T14:23:00;5.35;;;4.72;;
52790;SDS011;41253;46.856;-71.574;2022-08-01T14:25:27;7.18;;;5.47;;
52790;SDS011;41253;46.856;-71.574;2022-08-01T14:27:53;5.40;;;4.80;;
52790;SDS011;41253;46.856;-71.574;2022-08-01T14:30:20;4.95;;;4.43;;
52790;SDS011;41253;46.856;-71.574;2022-08-01T14:32:46;6.80;;;4.40;;
52790;SDS011;41253;46.856;-71.574;2022-08-01T14:35:13;4.47;;;4.07;;
52790;SDS011;41253;46.856;-71.574;2022-08-01T14:37:39;7.28;;;5.65;;
52790;SDS011;41253;46.856;-71.574;2022-08-01T14:40:06;5.40;;;4.90;;
52790;SDS011;41253;46.856;-71.574;2022-08-01T14:42:36;5.53;;;5.03;;
52790;SDS011;41253;46.856;-71.574;2022-08-01T14:45:04;7.18;;;4.35;;
52790;SDS011;41253;46.856;-71.574;2022-08-01T14:47:34;5.20;;;4.70;;
52790;SDS011;41253;46.856;-71.574;2022-08-01T14:50:02;5.32;;;4.80;;
52790;SDS011;41253;46.856;-71.574;2022-08-01T14:52:30;6.43;;;3.88;;
52790;SDS011;41253;46.856;-71.574;2022-08-01T14:54:57;4.90;;;4.40;;
52790;SDS011;41253;46.856;-71.574;2022-08-01T14:57:24;4.30;;;3.90;;
52790;SDS011;41253;46.856;-71.574;2022-08-01T14:59:50;5.40;;;4.45;;
52790;SDS011;41253;46.856;-71.574;2022-08-01T15:02:17;4.25;;;3.78;;
52790;SDS011;41253;46.856;-71.574;2022-08-01T15:04:44;4.93;;;4.53;;
52790;SDS011;41253;46.856;-71.574;2022-08-01T15:07:11;3.70;;;3.40;;
52790;SDS011;41253;46.856;-71.574;2022-08-01T15:09:38;4.65;;;4.22;;
52790;SDS011;41253;46.856;-71.574;2022-08-01T15:12:05;5.28;;;4.20;;
52790;SDS011;41253;46.856;-71.574;2022-08-01T15:14:31;5.85;;;3.65;;
52790;SDS011;41253;46.856;-71.574;2022-08-01T15:17:18;4.88;;;3.50;;
52790;SDS011;41253;46.856;-71.574;2022-08-01T15:19:45;4.75;;;3.40;;
52790;SDS011;41253;46.856;-71.574;2022-08-01T15:22:13;5.00;;;3.67;;
52790;SDS011;41253;46.856;-71.574;2022-08-01T15:24:39;4.50;;;3.85;;